sensor_id;sensor_type;location;lat;lon;timestamp;P1;durP1;ratioP1;P2;durP2;ratioP2
70780;SDS011;59514;48.810;2.134;2023-08-06T00:00:37;4.05;;;0.80;;
70780;SDS011;59514;48.810;2.134;2023-08-06T00:03:02;3.75;;;1.20;;
70780;SDS011;59514;48.810;2.134;2023-08-06T00:05:28;3.27;;;0.90;;
70780;SDS011;59514;48.810;2.134;2023-08-06T00:07:53;2.63;;;0.80;;
70780;SDS011;59514;48.810;2.134;2023-08-06T00:10:18;5.13;;;1.23;;
70780;SDS011;59514;48.810;2.134;2023-08-06T00:12:43;4.50;;;1.00;;
70780;SDS011;59514;48.810;2.134;2023-08-06T00:15:09;2.95;;;0.90;;
70780;SDS011;59514;48.810;2.134;2023-08-06T00:17:34;4.43;;;0.90;;
70780;SDS011;59514;48.810;2.134;2023-08-06T00:20:00;2.30;;;1.13;;
70780;SDS011;59514;48.810;2.134;2023-08-06T00:22:30;4.03;;;1.17;;
70780;SDS011;59514;48.810;2.134;2023-08-06T00:24:55;4.15;;;1.05;;
70780;SDS011;59514;48.810;2.134;2023-08-06T00:27:22;3.63;;;1.00;;
70780;SDS011;59514;48.810;2.134;2023-08-06T00:29:47;1.73;;;0.80;;
70780;SDS011;59514;48.810;2.134;2023-08-06T00:32:12;4.77;;;1.10;;
70780;SDS011;59514;48.810;2.134;2023-08-06T00:34:38;6.57;;;1.87;;
70780;SDS011;59514;48.810;2.134;2023-08-06T00:37:03;6.43;;;1.93;;
70780;SDS011;59514;48.810;2.134;2023-08-06T00:39:28;5.77;;;1.90;;
70780;SDS011;59514;48.810;2.134;2023-08-06T00:41:53;4.17;;;1.17;;
70780;SDS011;59514;48.810;2.134;2023-08-06T00:44:19;6.82;;;1.23;;
70780;SDS011;59514;48.810;2.134;2023-08-06T00:46:44;4.80;;;1.50;;
70780;SDS011;59514;48.810;2.134;2023-08-06T00:49:10;1.33;;;0.87;;
70780;SDS011;59514;48.810;2.134;2023-08-06T00:51:35;4.45;;;1.58;;
70780;SDS011;59514;48.810;2.134;2023-08-06T00:54:01;3.47;;;1.25;;
70780;SDS011;59514;48.810;2.134;2023-08-06T00:56:26;4.97;;;2.08;;
70780;SDS011;59514;48.810;2.134;2023-08-06T00:58:51;5.28;;;1.83;;
70780;SDS011;59514;48.810;2.134;2023-08-06T01:01:17;5.20;;;1.83;;
70780;SDS011;59514;48.810;2.134;2023-08-06T01:03:42;3.40;;;1.40;;
70780;SDS011;59514;48.810;2.134;2023-08-06T01:06:07;3.42;;;1.35;;
70780;SDS011;59514;48.810;2.134;2023-08-06T01:11:23;4.53;;;1.73;;
70780;SDS011;59514;48.810;2.134;2023-08-06T01:13:50;7.72;;;1.70;;
70780;SDS011;59514;48.810;2.134;2023-08-06T01:16:20;5.95;;;1.70;;
70780;SDS011;59514;48.810;2.134;2023-08-06T01:18:47;2.60;;;1.40;;
70780;SDS011;59514;48.810;2.134;2023-08-06T01:21:14;2.25;;;1.60;;
70780;SDS011;59514;48.810;2.134;2023-08-06T01:23:39;5.23;;;1.63;;
70780;SDS011;59514;48.810;2.134;2023-08-06T01:31:24;3.13;;;1.98;;
70780;SDS011;59514;48.810;2.134;2023-08-06T01:33:51;5.57;;;2.28;;
70780;SDS011;59514;48.810;2.134;2023-08-06T01:36:18;3.17;;;1.67;;
70780;SDS011;59514;48.810;2.134;2023-08-06T01:38:44;4.95;;;2.00;;
70780;SDS011;59514;48.810;2.134;2023-08-06T01:41:09;2.90;;;2.15;;
70780;SDS011;59514;48.810;2.134;2023-08-06T01:43:34;5.07;;;1.97;;
70780;SDS011;59514;48.810;2.134;2023-08-06T01:45:59;4.83;;;2.40;;
70780;SDS011;59514;48.810;2.134;2023-08-06T01:48:25;4.00;;;2.10;;
70780;SDS011;59514;48.810;2.134;2023-08-06T01:50:50;5.63;;;2.13;;
70780;SDS011;59514;48.810;2.134;2023-08-06T01:53:15;3.83;;;1.93;;
70780;SDS011;59514;48.810;2.134;2023-08-06T01:55:40;5.13;;;2.00;;
70780;SDS011;59514;48.810;2.134;2023-08-06T01:58:05;6.50;;;2.30;;
70780;SDS011;59514;48.810;2.134;2023-08-06T02:00:31;5.53;;;2.70;;
70780;SDS011;59514;48.810;2.134;2023-08-06T02:02:56;3.35;;;2.20;;
70780;SDS011;59514;48.810;2.134;2023-08-06T02:05:21;4.77;;;2.10;;
70780;SDS011;59514;48.810;2.134;2023-08-06T02:07:47;5.73;;;2.50;;
70780;SDS011;59514;48.810;2.134;2023-08-06T02:10:12;5.88;;;2.15;;
70780;SDS011;59514;48.810;2.134;2023-08-06T02:12:37;4.90;;;2.63;;
70780;SDS011;59514;48.810;2.134;2023-08-06T02:15:03;3.97;;;2.20;;
70780;SDS011;59514;48.810;2.134;2023-08-06T02:17:28;3.33;;;2.08;;
70780;SDS011;59514;48.810;2.134;2023-08-06T02:19:53;3.43;;;1.93;;
70780;SDS011;59514;48.810;2.134;2023-08-06T02:22:19;5.00;;;2.70;;
70780;SDS011;59514;48.810;2.134;2023-08-06T02:24:44;3.73;;;2.27;;
70780;SDS011;59514;48.810;2.134;2023-08-06T02:27:09;5.90;;;2.30;;
70780;SDS011;59514;48.810;2.134;2023-08-06T02:29:34;4.23;;;2.13;;
70780;SDS011;59514;48.810;2.134;2023-08-06T02:32:00;4.80;;;2.27;;
70780;SDS011;59514;48.810;2.134;2023-08-06T02:34:27;4.25;;;3.00;;
70780;SDS011;59514;48.810;2.134;2023-08-06T02:36:52;4.67;;;2.13;;
70780;SDS011;59514;48.810;2.134;2023-08-06T02:39:17;5.80;;;2.23;;
70780;SDS011;59514;48.810;2.134;2023-08-06T02:41:43;3.75;;;2.83;;
70780;SDS011;59514;48.810;2.134;2023-08-06T02:44:09;3.25;;;2.40;;
70780;SDS011;59514;48.810;2.134;2023-08-06T02:46:34;4.07;;;2.73;;
70780;SDS011;59514;48.810;2.134;2023-08-06T02:48:59;4.17;;;2.80;;
70780;SDS011;59514;48.810;2.134;2023-08-06T02:51:24;4.40;;;2.37;;
70780;SDS011;59514;48.810;2.134;2023-08-06T02:53:50;3.95;;;2.42;;
70780;SDS011;59514;48.810;2.134;2023-08-06T02:56:15;5.55;;;2.83;;
70780;SDS011;59514;48.810;2.134;2023-08-06T02:58:40;4.70;;;3.08;;
70780;SDS011;59514;48.810;2.134;2023-08-06T03:01:06;6.40;;;2.53;;
70780;SDS011;59514;48.810;2.134;2023-08-06T03:03:32;4.18;;;2.25;;
70780;SDS011;59514;48.810;2.134;2023-08-06T03:05:58;3.97;;;2.60;;
70780;SDS011;59514;48.810;2.134;2023-08-06T03:08:23;4.40;;;2.40;;
70780;SDS011;59514;48.810;2.134;2023-08-06T03:10:49;5.40;;;2.40;;
70780;SDS011;59514;48.810;2.134;2023-08-06T03:13:14;3.28;;;2.10;;
70780;SDS011;59514;48.810;2.134;2023-08-06T03:15:40;3.90;;;2.30;;
70780;SDS011;59514;48.810;2.134;2023-08-06T03:18:05;2.53;;;2.00;;
70780;SDS011;59514;48.810;2.134;2023-08-06T03:20:31;5.95;;;2.50;;
70780;SDS011;59514;48.810;2.134;2023-08-06T03:22:57;4.65;;;2.50;;
70780;SDS011;59514;48.810;2.134;2023-08-06T03:25:22;3.03;;;2.07;;
70780;SDS011;59514;48.810;2.134;2023-08-06T12:32:21;1.10;;;0.90;;
70780;SDS011;59514;48.810;2.134;2023-08-06T12:34:47;1.50;;;1.00;;
70780;SDS011;59514;48.810;2.134;2023-08-06T12:37:12;1.83;;;1.00;;
70780;SDS011;59514;48.810;2.134;2023-08-06T12:39:38;1.63;;;1.17;;
70780;SDS011;59514;48.810;2.134;2023-08-06T12:42:03;2.90;;;1.17;;
70780;SDS011;59514;48.810;2.134;2023-08-06T12:44:29;1.95;;;1.38;;
70780;SDS011;59514;48.810;2.134;2023-08-06T12:46:54;1.27;;;1.10;;
70780;SDS011;59514;48.810;2.134;2023-08-06T12:49:20;2.80;;;1.10;;
70780;SDS011;59514;48.810;2.134;2023-08-06T12:51:48;1.85;;;1.55;;
70780;SDS011;59514;48.810;2.134;2023-08-06T12:54:14;2.95;;;1.50;;
70780;SDS011;59514;48.810;2.134;2023-08-06T12:56:39;2.77;;;1.57;;
70780;SDS011;59514;48.810;2.134;2023-08-06T12:59:04;1.70;;;1.40;;
70780;SDS011;59514;48.810;2.134;2023-08-06T13:01:29;5.07;;;3.28;;
70780;SDS011;59514;48.810;2.134;2023-08-06T13:03:55;5.03;;;3.40;;
70780;SDS011;59514;48.810;2.134;2023-08-06T13:06:20;1.33;;;1.17;;
70780;SDS011;59514;48.810;2.134;2023-08-06T13:08:45;1.87;;;1.07;;
70780;SDS011;59514;48.810;2.134;2023-08-06T13:11:10;1.20;;;1.00;;
70780;SDS011;59514;48.810;2.134;2023-08-06T13:13:35;2.03;;;1.30;;
70780;SDS011;59514;48.810;2.134;2023-08-06T13:16:01;1.83;;;1.00;;
70780;SDS011;59514;48.810;2.134;2023-08-06T13:18:26;1.87;;;0.90;;
70780;SDS011;59514;48.810;2.134;2023-08-06T13:20:55;1.33;;;1.02;;
70780;SDS011;59514;48.810;2.134;2023-08-06T13:23:20;1.45;;;1.20;;
70780;SDS011;59514;48.810;2.134;2023-08-06T13:25:46;3.03;;;1.25;;
70780;SDS011;59514;48.810;2.134;2023-08-06T13:28:11;1.30;;;0.90;;
70780;SDS011;59514;48.810;2.134;2023-08-06T13:30:36;4.07;;;1.30;;
70780;SDS011;59514;48.810;2.134;2023-08-06T13:33:06;4.15;;;3.58;;
70780;SDS011;59514;48.810;2.134;2023-08-06T13:35:32;1.65;;;0.90;;
70780;SDS011;59514;48.810;2.134;2023-08-06T13:37:57;2.45;;;1.17;;
70780;SDS011;59514;48.810;2.134;2023-08-06T13:40:22;1.97;;;1.10;;
70780;SDS011;59514;48.810;2.134;2023-08-06T13:42:47;1.27;;;1.07;;
70780;SDS011;59514;48.810;2.134;2023-08-06T13:45:13;1.20;;;1.10;;
70780;SDS011;59514;48.810;2.134;2023-08-06T13:47:38;1.33;;;1.10;;
70780;SDS011;59514;48.810;2.134;2023-08-06T13:50:03;1.27;;;0.80;;
70780;SDS011;59514;48.810;2.134;2023-08-06T13:52:28;2.40;;;1.08;;
70780;SDS011;59514;48.810;2.134;2023-08-06T13:54:53;1.87;;;1.03;;
70780;SDS011;59514;48.810;2.134;2023-08-06T13:57:19;2.60;;;1.20;;
70780;SDS011;59514;48.810;2.134;2023-08-06T13:59:44;1.23;;;0.90;;
70780;SDS011;59514;48.810;2.134;2023-08-06T14:02:09;2.47;;;1.07;;
70780;SDS011;59514;48.810;2.134;2023-08-06T14:04:35;1.23;;;0.85;;
70780;SDS011;59514;48.810;2.134;2023-08-06T14:07:00;1.02;;;0.93;;
70780;SDS011;59514;48.810;2.134;2023-08-06T14:09:25;1.70;;;1.13;;
70780;SDS011;59514;48.810;2.134;2023-08-06T14:11:50;2.87;;;1.20;;
70780;SDS011;59514;48.810;2.134;2023-08-06T14:14:16;1.87;;;1.27;;
70780;SDS011;59514;48.810;2.134;2023-08-06T14:16:41;2.70;;;1.40;;
70780;SDS011;59514;48.810;2.134;2023-08-06T14:19:06;2.07;;;1.10;;
70780;SDS011;59514;48.810;2.134;2023-08-06T14:21:31;1.42;;;1.30;;
70780;SDS011;59514;48.810;2.134;2023-08-06T14:23:57;1.20;;;0.90;;
70780;SDS011;59514;48.810;2.134;2023-08-06T14:26:22;1.93;;;1.20;;
70780;SDS011;59514;48.810;2.134;2023-08-06T14:28:47;1.38;;;1.13;;
70780;SDS011;59514;48.810;2.134;2023-08-06T14:31:12;1.57;;;1.10;;
70780;SDS011;59514;48.810;2.134;2023-08-06T14:33:38;1.40;;;1.00;;
70780;SDS011;59514;48.810;2.134;2023-08-06T14:36:03;1.00;;;0.93;;
70780;SDS011;59514;48.810;2.134;2023-08-06T14:38:28;1.20;;;1.00;;
70780;SDS011;59514;48.810;2.134;2023-08-06T14:40:54;1.70;;;1.00;;
70780;SDS011;59514;48.810;2.134;2023-08-06T14:43:19;1.13;;;0.80;;
70780;SDS011;59514;48.810;2.134;2023-08-06T14:45:44;1.23;;;0.90;;
70780;SDS011;59514;48.810;2.134;2023-08-06T14:48:10;1.80;;;0.90;;
70780;SDS011;59514;48.810;2.134;2023-08-06T14:50:35;2.10;;;1.20;;
70780;SDS011;59514;48.810;2.134;2023-08-06T14:53:00;1.50;;;1.10;;
70780;SDS011;59514;48.810;2.134;2023-08-06T14:55:29;3.65;;;1.15;;
70780;SDS011;59514;48.810;2.134;2023-08-06T14:57:54;1.90;;;0.87;;
70780;SDS011;59514;48.810;2.134;2023-08-06T15:00:20;1.60;;;0.90;;
70780;SDS011;59514;48.810;2.134;2023-08-06T15:02:45;1.83;;;0.75;;
70780;SDS011;59514;48.810;2.134;2023-08-06T15:05:10;3.53;;;1.05;;
70780;SDS011;59514;48.810;2.134;2023-08-06T15:07:36;1.13;;;0.80;;
70780;SDS011;59514;48.810;2.134;2023-08-06T15:10:02;1.58;;;0.82;;
70780;SDS011;59514;48.810;2.134;2023-08-06T15:12:27;2.58;;;1.30;;
70780;SDS011;59514;48.810;2.134;2023-08-06T15:14:53;1.50;;;0.53;;
70780;SDS011;59514;48.810;2.134;2023-08-06T15:17:21;0.80;;;0.75;;
70780;SDS011;59514;48.810;2.134;2023-08-06T15:19:46;1.50;;;0.63;;
70780;SDS011;59514;48.810;2.134;2023-08-06T15:22:12;2.10;;;0.53;;
70780;SDS011;59514;48.810;2.134;2023-08-06T15:24:37;1.45;;;0.90;;
70780;SDS011;59514;48.810;2.134;2023-08-06T15:27:06;1.58;;;0.50;;
70780;SDS011;59514;48.810;2.134;2023-08-06T15:29:31;0.73;;;0.53;;
70780;SDS011;59514;48.810;2.134;2023-08-06T15:31:57;1.17;;;0.33;;
70780;SDS011;59514;48.810;2.134;2023-08-06T15:34:22;0.63;;;0.60;;
70780;SDS011;59514;48.810;2.134;2023-08-06T15:36:47;0.43;;;0.43;;
70780;SDS011;59514;48.810;2.134;2023-08-06T15:39:12;1.80;;;0.70;;
70780;SDS011;59514;48.810;2.134;2023-08-06T15:41:37;2.43;;;0.70;;
70780;SDS011;59514;48.810;2.134;2023-08-06T15:44:03;1.60;;;0.60;;
70780;SDS011;59514;48.810;2.134;2023-08-06T15:46:28;1.63;;;0.82;;
70780;SDS011;59514;48.810;2.134;2023-08-06T15:48:53;1.20;;;0.87;;
70780;SDS011;59514;48.810;2.134;2023-08-06T15:51:18;1.83;;;0.73;;
70780;SDS011;59514;48.810;2.134;2023-08-06T15:53:43;1.10;;;0.70;;
70780;SDS011;59514;48.810;2.134;2023-08-06T15:56:09;0.80;;;0.60;;
70780;SDS011;59514;48.810;2.134;2023-08-06T15:58:34;1.10;;;0.60;;
70780;SDS011;59514;48.810;2.134;2023-08-06T16:00:59;1.83;;;1.63;;
70780;SDS011;59514;48.810;2.134;2023-08-06T16:03:24;1.20;;;0.33;;
70780;SDS011;59514;48.810;2.134;2023-08-06T16:05:50;0.77;;;0.60;;
70780;SDS011;59514;48.810;2.134;2023-08-06T16:08:15;0.53;;;0.47;;
70780;SDS011;59514;48.810;2.134;2023-08-06T16:10:40;0.70;;;0.50;;
70780;SDS011;59514;48.810;2.134;2023-08-06T16:13:09;0.80;;;0.70;;
70780;SDS011;59514;48.810;2.134;2023-08-06T16:15:34;0.70;;;0.50;;
70780;SDS011;59514;48.810;2.134;2023-08-06T16:17:59;1.00;;;0.60;;
70780;SDS011;59514;48.810;2.134;2023-08-06T16:20:25;1.23;;;0.45;;
70780;SDS011;59514;48.810;2.134;2023-08-06T16:22:50;1.83;;;0.70;;
70780;SDS011;59514;48.810;2.134;2023-08-06T16:25:16;0.90;;;0.70;;
70780;SDS011;59514;48.810;2.134;2023-08-06T16:27:41;1.37;;;0.83;;
70780;SDS011;59514;48.810;2.134;2023-08-06T16:30:06;2.00;;;0.50;;
70780;SDS011;59514;48.810;2.134;2023-08-06T16:32:32;0.93;;;0.50;;
70780;SDS011;59514;48.810;2.134;2023-08-06T16:34:58;0.43;;;0.43;;
70780;SDS011;59514;48.810;2.134;2023-08-06T16:37:23;0.77;;;0.40;;
70780;SDS011;59514;48.810;2.134;2023-08-06T16:39:48;0.60;;;0.47;;
70780;SDS011;59514;48.810;2.134;2023-08-06T16:42:14;2.28;;;0.50;;
70780;SDS011;59514;48.810;2.134;2023-08-06T16:44:39;0.63;;;0.50;;
70780;SDS011;59514;48.810;2.134;2023-08-06T16:47:05;2.05;;;0.50;;
70780;SDS011;59514;48.810;2.134;2023-08-06T16:49:31;1.52;;;0.40;;
70780;SDS011;59514;48.810;2.134;2023-08-06T16:51:56;2.00;;;0.57;;
70780;SDS011;59514;48.810;2.134;2023-08-06T16:54:21;0.77;;;0.47;;
70780;SDS011;59514;48.810;2.134;2023-08-06T16:56:46;0.63;;;0.40;;
70780;SDS011;59514;48.810;2.134;2023-08-06T16:59:12;3.53;;;0.50;;
70780;SDS011;59514;48.810;2.134;2023-08-06T17:01:37;0.52;;;0.50;;
70780;SDS011;59514;48.810;2.134;2023-08-06T17:04:04;0.65;;;0.50;;
70780;SDS011;59514;48.810;2.134;2023-08-06T17:06:29;1.45;;;0.50;;
70780;SDS011;59514;48.810;2.134;2023-08-06T17:08:54;1.77;;;0.67;;
70780;SDS011;59514;48.810;2.134;2023-08-06T17:11:20;0.90;;;0.47;;
70780;SDS011;59514;48.810;2.134;2023-08-06T17:13:45;0.87;;;0.53;;
70780;SDS011;59514;48.810;2.134;2023-08-06T17:16:10;0.80;;;0.40;;
70780;SDS011;59514;48.810;2.134;2023-08-06T17:18:37;0.32;;;0.30;;
70780;SDS011;59514;48.810;2.134;2023-08-06T17:21:02;0.87;;;0.50;;
70780;SDS011;59514;48.810;2.134;2023-08-06T17:23:27;0.90;;;0.40;;
70780;SDS011;59514;48.810;2.134;2023-08-06T17:25:53;0.57;;;0.40;;
70780;SDS011;59514;48.810;2.134;2023-08-06T17:28:18;1.20;;;0.43;;
70780;SDS011;59514;48.810;2.134;2023-08-06T17:30:43;0.40;;;0.30;;
70780;SDS011;59514;48.810;2.134;2023-08-06T17:33:09;2.10;;;0.40;;
70780;SDS011;59514;48.810;2.134;2023-08-06T17:35:36;0.88;;;0.40;;
70780;SDS011;59514;48.810;2.134;2023-08-06T17:38:01;0.45;;;0.32;;
70780;SDS011;59514;48.810;2.134;2023-08-06T17:40:27;1.20;;;0.40;;
70780;SDS011;59514;48.810;2.134;2023-08-06T17:42:53;0.77;;;0.25;;
70780;SDS011;59514;48.810;2.134;2023-08-06T17:45:18;1.20;;;0.40;;
70780;SDS011;59514;48.810;2.134;2023-08-06T17:47:43;1.40;;;0.40;;
70780;SDS011;59514;48.810;2.134;2023-08-06T17:50:09;0.87;;;0.40;;
70780;SDS011;59514;48.810;2.134;2023-08-06T17:52:34;1.17;;;0.50;;
70780;SDS011;59514;48.810;2.134;2023-08-06T17:54:59;1.13;;;0.50;;
70780;SDS011;59514;48.810;2.134;2023-08-06T17:57:24;0.50;;;0.40;;
70780;SDS011;59514;48.810;2.134;2023-08-06T17:59:50;0.40;;;0.20;;
70780;SDS011;59514;48.810;2.134;2023-08-06T18:02:15;1.50;;;0.60;;
70780;SDS011;59514;48.810;2.134;2023-08-06T18:04:40;1.90;;;0.40;;
70780;SDS011;59514;48.810;2.134;2023-08-06T18:07:06;0.88;;;0.38;;
70780;SDS011;59514;48.810;2.134;2023-08-06T18:09:32;0.80;;;0.30;;
70780;SDS011;59514;48.810;2.134;2023-08-06T18:11:57;0.90;;;0.40;;
70780;SDS011;59514;48.810;2.134;2023-08-06T18:14:22;0.50;;;0.20;;
70780;SDS011;59514;48.810;2.134;2023-08-06T18:16:47;0.33;;;0.33;;
70780;SDS011;59514;48.810;2.134;2023-08-06T18:19:12;0.87;;;0.40;;
70780;SDS011;59514;48.810;2.134;2023-08-06T18:21:37;0.77;;;0.30;;
70780;SDS011;59514;48.810;2.134;2023-08-06T18:24:03;0.77;;;0.30;;
70780;SDS011;59514;48.810;2.134;2023-08-06T18:26:28;1.83;;;0.47;;
70780;SDS011;59514;48.810;2.134;2023-08-06T18:28:53;0.70;;;0.43;;
70780;SDS011;59514;48.810;2.134;2023-08-06T18:31:19;1.85;;;0.47;;
70780;SDS011;59514;48.810;2.134;2023-08-06T18:33:44;1.57;;;0.40;;
70780;SDS011;59514;48.810;2.134;2023-08-06T18:36:09;0.70;;;0.50;;
70780;SDS011;59514;48.810;2.134;2023-08-06T18:38:34;1.10;;;0.50;;
70780;SDS011;59514;48.810;2.134;2023-08-06T18:41:00;1.40;;;0.70;;
70780;SDS011;59514;48.810;2.134;2023-08-06T18:43:25;2.00;;;0.60;;
70780;SDS011;59514;48.810;2.134;2023-08-06T18:45:50;0.88;;;0.32;;
70780;SDS011;59514;48.810;2.134;2023-08-06T18:48:15;0.77;;;0.63;;
70780;SDS011;59514;48.810;2.134;2023-08-06T18:50:44;1.20;;;1.07;;
70780;SDS011;59514;48.810;2.134;2023-08-06T18:53:09;2.85;;;2.20;;
70780;SDS011;59514;48.810;2.134;2023-08-06T18:55:35;2.22;;;1.73;;
70780;SDS011;59514;48.810;2.134;2023-08-06T18:58:00;1.08;;;0.90;;
70780;SDS011;59514;48.810;2.134;2023-08-06T19:00:28;2.28;;;0.88;;
70780;SDS011;59514;48.810;2.134;2023-08-06T19:02:53;1.57;;;1.00;;
70780;SDS011;59514;48.810;2.134;2023-08-06T19:05:18;1.33;;;1.03;;
70780;SDS011;59514;48.810;2.134;2023-08-06T19:07:43;1.10;;;0.90;;
70780;SDS011;59514;48.810;2.134;2023-08-06T19:10:08;0.90;;;0.53;;
70780;SDS011;59514;48.810;2.134;2023-08-06T19:12:34;1.52;;;0.98;;
70780;SDS011;59514;48.810;2.134;2023-08-06T19:14:59;0.77;;;0.50;;
70780;SDS011;59514;48.810;2.134;2023-08-06T19:17:24;1.17;;;0.43;;
70780;SDS011;59514;48.810;2.134;2023-08-06T19:19:49;1.43;;;0.50;;
70780;SDS011;59514;48.810;2.134;2023-08-06T19:22:14;0.77;;;0.67;;
70780;SDS011;59514;48.810;2.134;2023-08-06T19:24:40;0.90;;;0.60;;
70780;SDS011;59514;48.810;2.134;2023-08-06T19:27:05;0.85;;;0.50;;
70780;SDS011;59514;48.810;2.134;2023-08-06T19:29:31;1.25;;;0.47;;
70780;SDS011;59514;48.810;2.134;2023-08-06T19:31:56;0.67;;;0.40;;
70780;SDS011;59514;48.810;2.134;2023-08-06T19:34:21;1.23;;;0.40;;
70780;SDS011;59514;48.810;2.134;2023-08-06T19:36:46;0.80;;;0.40;;
70780;SDS011;59514;48.810;2.134;2023-08-06T19:39:11;0.50;;;0.40;;
70780;SDS011;59514;48.810;2.134;2023-08-06T19:41:37;1.17;;;0.50;;
70780;SDS011;59514;48.810;2.134;2023-08-06T19:44:02;0.80;;;0.57;;
70780;SDS011;59514;48.810;2.134;2023-08-06T19:46:27;0.30;;;0.30;;
70780;SDS011;59514;48.810;2.134;2023-08-06T19:48:52;0.70;;;0.60;;
70780;SDS011;59514;48.810;2.134;2023-08-06T19:51:17;2.13;;;0.77;;
70780;SDS011;59514;48.810;2.134;2023-08-06T19:53:44;1.02;;;0.50;;
70780;SDS011;59514;48.810;2.134;2023-08-06T19:56:10;0.68;;;0.40;;
70780;SDS011;59514;48.810;2.134;2023-08-06T19:58:35;0.88;;;0.57;;
70780;SDS011;59514;48.810;2.134;2023-08-06T20:01:01;0.93;;;0.50;;
70780;SDS011;59514;48.810;2.134;2023-08-06T20:03:26;0.75;;;0.50;;
70780;SDS011;59514;48.810;2.134;2023-08-06T20:05:51;1.03;;;0.60;;
70780;SDS011;59514;48.810;2.134;2023-08-06T20:08:17;2.07;;;0.90;;
70780;SDS011;59514;48.810;2.134;2023-08-06T20:10:46;1.00;;;0.75;;
70780;SDS011;59514;48.810;2.134;2023-08-06T20:13:11;0.35;;;0.35;;
70780;SDS011;59514;48.810;2.134;2023-08-06T20:15:37;1.13;;;0.40;;
70780;SDS011;59514;48.810;2.134;2023-08-06T20:18:02;0.50;;;0.50;;
70780;SDS011;59514;48.810;2.134;2023-08-06T20:20:27;0.85;;;0.50;;
70780;SDS011;59514;48.810;2.134;2023-08-06T20:22:52;0.93;;;0.87;;
70780;SDS011;59514;48.810;2.134;2023-08-06T20:25:18;1.10;;;0.40;;
70780;SDS011;59514;48.810;2.134;2023-08-06T20:27:43;1.70;;;0.60;;
70780;SDS011;59514;48.810;2.134;2023-08-06T20:30:08;1.07;;;0.50;;
70780;SDS011;59514;48.810;2.134;2023-08-06T20:32:33;1.85;;;0.63;;
70780;SDS011;59514;48.810;2.134;2023-08-06T20:34:58;0.80;;;0.50;;
70780;SDS011;59514;48.810;2.134;2023-08-06T20:37:24;0.97;;;0.40;;
70780;SDS011;59514;48.810;2.134;2023-08-06T20:39:49;0.77;;;0.60;;
70780;SDS011;59514;48.810;2.134;2023-08-06T20:42:14;0.83;;;0.53;;
70780;SDS011;59514;48.810;2.134;2023-08-06T20:44:41;0.75;;;0.35;;
70780;SDS011;59514;48.810;2.134;2023-08-06T20:47:06;1.63;;;0.90;;
70780;SDS011;59514;48.810;2.134;2023-08-06T20:49:31;1.63;;;1.03;;
70780;SDS011;59514;48.810;2.134;2023-08-06T20:51:57;3.10;;;1.53;;
70780;SDS011;59514;48.810;2.134;2023-08-06T20:54:22;1.63;;;1.33;;
70780;SDS011;59514;48.810;2.134;2023-08-06T20:56:47;0.73;;;0.70;;
70780;SDS011;59514;48.810;2.134;2023-08-06T20:59:12;1.55;;;0.85;;
70780;SDS011;59514;48.810;2.134;2023-08-06T21:01:37;1.60;;;0.70;;
70780;SDS011;59514;48.810;2.134;2023-08-06T21:04:05;1.53;;;1.00;;
70780;SDS011;59514;48.810;2.134;2023-08-06T21:06:34;1.45;;;0.80;;
70780;SDS011;59514;48.810;2.134;2023-08-06T21:09:00;5.50;;;0.87;;
70780;SDS011;59514;48.810;2.134;2023-08-06T21:11:25;1.43;;;0.57;;
70780;SDS011;59514;48.810;2.134;2023-08-06T21:13:50;1.10;;;0.60;;
70780;SDS011;59514;48.810;2.134;2023-08-06T21:16:15;2.10;;;0.70;;
70780;SDS011;59514;48.810;2.134;2023-08-06T21:18:40;2.90;;;0.90;;
70780;SDS011;59514;48.810;2.134;2023-08-06T21:21:06;1.63;;;0.65;;
70780;SDS011;59514;48.810;2.134;2023-08-06T21:23:31;1.37;;;0.70;;
70780;SDS011;59514;48.810;2.134;2023-08-06T21:25:57;2.05;;;0.70;;
70780;SDS011;59514;48.810;2.134;2023-08-06T21:28:27;1.30;;;0.55;;
70780;SDS011;59514;48.810;2.134;2023-08-06T21:30:55;1.58;;;0.65;;
70780;SDS011;59514;48.810;2.134;2023-08-06T21:33:21;1.00;;;0.60;;
70780;SDS011;59514;48.810;2.134;2023-08-06T21:35:46;1.70;;;0.77;;
70780;SDS011;59514;48.810;2.134;2023-08-06T21:38:11;0.97;;;0.83;;
70780;SDS011;59514;48.810;2.134;2023-08-06T21:40:36;0.90;;;0.70;;
70780;SDS011;59514;48.810;2.134;2023-08-06T21:43:01;2.30;;;1.80;;
70780;SDS011;59514;48.810;2.134;2023-08-06T21:45:28;7.07;;;3.43;;
70780;SDS011;59514;48.810;2.134;2023-08-06T21:47:53;2.83;;;2.00;;
70780;SDS011;59514;48.810;2.134;2023-08-06T21:50:18;3.47;;;2.17;;
70780;SDS011;59514;48.810;2.134;2023-08-06T21:52:44;1.73;;;1.30;;
70780;SDS011;59514;48.810;2.134;2023-08-06T21:55:09;1.43;;;1.20;;
70780;SDS011;59514;48.810;2.134;2023-08-06T21:57:34;1.37;;;0.87;;
70780;SDS011;59514;48.810;2.134;2023-08-06T21:59:59;2.70;;;1.00;;
70780;SDS011;59514;48.810;2.134;2023-08-06T22:02:24;1.10;;;0.57;;
70780;SDS011;59514;48.810;2.134;2023-08-06T22:04:50;1.07;;;0.80;;
70780;SDS011;59514;48.810;2.134;2023-08-06T22:07:15;1.30;;;1.00;;
70780;SDS011;59514;48.810;2.134;2023-08-06T22:09:40;1.53;;;0.90;;
70780;SDS011;59514;48.810;2.134;2023-08-06T22:12:05;2.17;;;0.93;;
70780;SDS011;59514;48.810;2.134;2023-08-06T22:14:31;2.47;;;0.77;;
70780;SDS011;59514;48.810;2.134;2023-08-06T22:16:56;1.17;;;0.60;;
70780;SDS011;59514;48.810;2.134;2023-08-06T22:19:22;1.88;;;0.68;;
70780;SDS011;59514;48.810;2.134;2023-08-06T22:21:47;1.17;;;0.70;;
70780;SDS011;59514;48.810;2.134;2023-08-06T22:24:13;1.33;;;0.77;;
70780;SDS011;59514;48.810;2.134;2023-08-06T22:26:38;1.23;;;0.70;;
70780;SDS011;59514;48.810;2.134;2023-08-06T22:29:03;2.20;;;1.03;;
70780;SDS011;59514;48.810;2.134;2023-08-06T22:31:28;3.57;;;1.00;;
70780;SDS011;59514;48.810;2.134;2023-08-06T22:33:53;0.50;;;0.50;;
70780;SDS011;59514;48.810;2.134;2023-08-06T22:36:19;0.60;;;0.60;;
70780;SDS011;59514;48.810;2.134;2023-08-06T22:38:44;1.73;;;0.80;;
70780;SDS011;59514;48.810;2.134;2023-08-06T22:41:09;1.70;;;0.70;;
70780;SDS011;59514;48.810;2.134;2023-08-06T22:43:34;1.37;;;0.70;;
70780;SDS011;59514;48.810;2.134;2023-08-06T22:46:00;1.88;;;1.02;;
70780;SDS011;59514;48.810;2.134;2023-08-06T22:48:25;1.60;;;0.70;;
70780;SDS011;59514;48.810;2.134;2023-08-06T22:50:50;0.60;;;0.60;;
70780;SDS011;59514;48.810;2.134;2023-08-06T22:53:15;1.63;;;0.73;;
70780;SDS011;59514;48.810;2.134;2023-08-06T22:55:40;2.47;;;0.97;;
70780;SDS011;59514;48.810;2.134;2023-08-06T22:58:06;1.47;;;1.10;;
70780;SDS011;59514;48.810;2.134;2023-08-06T23:00:31;3.13;;;0.80;;
70780;SDS011;59514;48.810;2.134;2023-08-06T23:02:56;2.53;;;0.90;;
70780;SDS011;59514;48.810;2.134;2023-08-06T23:05:21;1.47;;;0.80;;
70780;SDS011;59514;48.810;2.134;2023-08-06T23:07:46;1.90;;;0.90;;
70780;SDS011;59514;48.810;2.134;2023-08-06T23:10:12;2.57;;;1.00;;
70780;SDS011;59514;48.810;2.134;2023-08-06T23:12:37;1.30;;;0.80;;
70780;SDS011;59514;48.810;2.134;2023-08-06T23:15:02;1.30;;;0.97;;
70780;SDS011;59514;48.810;2.134;2023-08-06T23:17:27;0.82;;;0.70;;
70780;SDS011;59514;48.810;2.134;2023-08-06T23:19:53;2.00;;;1.20;;
70780;SDS011;59514;48.810;2.134;2023-08-06T23:22:21;2.55;;;1.10;;
70780;SDS011;59514;48.810;2.134;2023-08-06T23:24:46;2.25;;;0.90;;
70780;SDS011;59514;48.810;2.134;2023-08-06T23:27:11;1.80;;;1.10;;
70780;SDS011;59514;48.810;2.134;2023-08-06T23:29:36;3.67;;;1.43;;
70780;SDS011;59514;48.810;2.134;2023-08-06T23:32:02;1.90;;;0.90;;
70780;SDS011;59514;48.810;2.134;2023-08-06T23:34:27;2.90;;;1.00;;
70780;SDS011;59514;48.810;2.134;2023-08-06T23:36:52;2.17;;;0.93;;
70780;SDS011;59514;48.810;2.134;2023-08-06T23:39:17;2.07;;;0.80;;
70780;SDS011;59514;48.810;2.134;2023-08-06T23:41:42;1.23;;;0.90;;
70780;SDS011;59514;48.810;2.134;2023-08-06T23:44:08;1.87;;;1.07;;
70780;SDS011;59514;48.810;2.134;2023-08-06T23:46:33;2.33;;;0.80;;
70780;SDS011;59514;48.810;2.134;2023-08-06T23:48:58;3.60;;;1.30;;